sensor_id;sensor_type;location;lat;lon;timestamp;P1;durP1;ratioP1;P2;durP2;ratioP2
55146;SDS011;41039;49.830;23.988;2023-08-31T00:01:37;13.73;;;8.90;;
55146;SDS011;41039;49.830;23.988;2023-08-31T00:04:03;12.17;;;8.77;;
55146;SDS011;41039;49.830;23.988;2023-08-31T00:06:29;15.55;;;8.98;;
55146;SDS011;41039;49.830;23.988;2023-08-31T00:08:54;12.80;;;7.93;;
55146;SDS011;41039;49.830;23.988;2023-08-31T00:11:19;13.90;;;8.65;;
55146;SDS011;41039;49.830;23.988;2023-08-31T00:13:45;13.13;;;9.02;;
55146;SDS011;41039;49.830;23.988;2023-08-31T00:16:10;11.93;;;8.48;;
55146;SDS011;41039;49.830;23.988;2023-08-31T00:18:37;12.63;;;7.75;;
55146;SDS011;41039;49.830;23.988;2023-08-31T00:21:02;10.55;;;7.80;;
55146;SDS011;41039;49.830;23.988;2023-08-31T00:23:28;13.32;;;8.30;;
55146;SDS011;41039;49.830;23.988;2023-08-31T00:25:53;13.00;;;8.73;;
55146;SDS011;41039;49.830;23.988;2023-08-31T00:28:19;12.13;;;9.07;;
55146;SDS011;41039;49.830;23.988;2023-08-31T00:30:44;12.20;;;8.65;;
55146;SDS011;41039;49.830;23.988;2023-08-31T00:33:10;12.05;;;8.18;;
55146;SDS011;41039;49.830;23.988;2023-08-31T00:35:36;10.25;;;7.50;;
55146;SDS011;41039;49.830;23.988;2023-08-31T00:38:01;10.82;;;7.80;;
55146;SDS011;41039;49.830;23.988;2023-08-31T00:40:29;10.52;;;8.15;;
55146;SDS011;41039;49.830;23.988;2023-08-31T00:42:56;10.63;;;8.00;;
55146;SDS011;41039;49.830;23.988;2023-08-31T00:45:21;7.65;;;5.68;;
55146;SDS011;41039;49.830;23.988;2023-08-31T00:47:47;6.90;;;5.85;;
55146;SDS011;41039;49.830;23.988;2023-08-31T00:50:14;8.52;;;5.35;;
55146;SDS011;41039;49.830;23.988;2023-08-31T00:52:40;6.10;;;5.03;;
55146;SDS011;41039;49.830;23.988;2023-08-31T00:55:06;6.63;;;5.00;;
55146;SDS011;41039;49.830;23.988;2023-08-31T00:57:31;5.13;;;4.45;;
55146;SDS011;41039;49.830;23.988;2023-08-31T00:59:56;5.00;;;3.92;;
55146;SDS011;41039;49.830;23.988;2023-08-31T01:04:58;4.90;;;3.13;;
55146;SDS011;41039;49.830;23.988;2023-08-31T01:12:40;4.32;;;2.50;;
55146;SDS011;41039;49.830;23.988;2023-08-31T01:15:10;4.10;;;2.90;;
55146;SDS011;41039;49.830;23.988;2023-08-31T01:17:44;4.22;;;2.78;;
55146;SDS011;41039;49.830;23.988;2023-08-31T01:20:11;4.35;;;2.97;;
55146;SDS011;41039;49.830;23.988;2023-08-31T01:22:47;5.03;;;3.67;;
55146;SDS011;41039;49.830;23.988;2023-08-31T01:25:13;7.25;;;5.70;;
55146;SDS011;41039;49.830;23.988;2023-08-31T01:27:38;9.68;;;6.35;;
55146;SDS011;41039;49.830;23.988;2023-08-31T01:30:05;6.72;;;5.72;;
55146;SDS011;41039;49.830;23.988;2023-08-31T01:32:31;8.55;;;5.95;;
55146;SDS011;41039;49.830;23.988;2023-08-31T01:34:56;7.50;;;5.30;;
55146;SDS011;41039;49.830;23.988;2023-08-31T01:37:31;5.93;;;4.45;;
55146;SDS011;41039;49.830;23.988;2023-08-31T01:40:02;6.55;;;4.45;;
55146;SDS011;41039;49.830;23.988;2023-08-31T01:42:29;4.80;;;3.53;;
55146;SDS011;41039;49.830;23.988;2023-08-31T01:44:56;4.68;;;4.03;;
55146;SDS011;41039;49.830;23.988;2023-08-31T01:47:22;4.57;;;3.72;;
55146;SDS011;41039;49.830;23.988;2023-08-31T01:49:47;5.43;;;3.83;;
55146;SDS011;41039;49.830;23.988;2023-08-31T01:52:13;5.53;;;3.80;;
55146;SDS011;41039;49.830;23.988;2023-08-31T01:54:38;5.78;;;3.53;;
55146;SDS011;41039;49.830;23.988;2023-08-31T01:57:03;6.15;;;4.10;;
55146;SDS011;41039;49.830;23.988;2023-08-31T01:59:29;5.20;;;3.63;;
55146;SDS011;41039;49.830;23.988;2023-08-31T02:01:54;4.50;;;3.38;;
55146;SDS011;41039;49.830;23.988;2023-08-31T02:04:20;5.30;;;3.63;;
55146;SDS011;41039;49.830;23.988;2023-08-31T02:06:45;4.70;;;3.45;;
55146;SDS011;41039;49.830;23.988;2023-08-31T02:09:10;5.68;;;3.53;;
55146;SDS011;41039;49.830;23.988;2023-08-31T02:11:35;5.30;;;4.43;;
55146;SDS011;41039;49.830;23.988;2023-08-31T02:14:03;6.95;;;3.95;;
55146;SDS011;41039;49.830;23.988;2023-08-31T02:16:28;5.18;;;4.22;;
55146;SDS011;41039;49.830;23.988;2023-08-31T02:18:53;8.27;;;5.20;;
55146;SDS011;41039;49.830;23.988;2023-08-31T02:21:19;5.93;;;4.90;;
55146;SDS011;41039;49.830;23.988;2023-08-31T02:23:45;5.90;;;4.95;;
55146;SDS011;41039;49.830;23.988;2023-08-31T02:26:10;6.38;;;5.53;;
55146;SDS011;41039;49.830;23.988;2023-08-31T02:28:36;7.53;;;5.82;;
55146;SDS011;41039;49.830;23.988;2023-08-31T02:31:02;6.95;;;5.22;;
55146;SDS011;41039;49.830;23.988;2023-08-31T02:33:27;8.95;;;6.97;;
55146;SDS011;41039;49.830;23.988;2023-08-31T02:35:53;8.20;;;6.63;;
55146;SDS011;41039;49.830;23.988;2023-08-31T02:38:19;11.10;;;6.75;;
55146;SDS011;41039;49.830;23.988;2023-08-31T02:40:45;7.97;;;5.75;;
55146;SDS011;41039;49.830;23.988;2023-08-31T02:43:11;8.07;;;5.97;;
55146;SDS011;41039;49.830;23.988;2023-08-31T02:45:36;7.90;;;6.35;;
55146;SDS011;41039;49.830;23.988;2023-08-31T02:48:01;8.68;;;6.72;;
55146;SDS011;41039;49.830;23.988;2023-08-31T02:50:28;9.07;;;7.10;;
55146;SDS011;41039;49.830;23.988;2023-08-31T02:52:53;9.68;;;7.40;;
55146;SDS011;41039;49.830;23.988;2023-08-31T02:55:19;9.67;;;7.07;;
55146;SDS011;41039;49.830;23.988;2023-08-31T02:57:44;9.20;;;7.78;;
55146;SDS011;41039;49.830;23.988;2023-08-31T03:00:10;9.13;;;7.50;;
55146;SDS011;41039;49.830;23.988;2023-08-31T03:02:38;10.30;;;7.95;;
55146;SDS011;41039;49.830;23.988;2023-08-31T03:05:03;8.52;;;7.07;;
55146;SDS011;41039;49.830;23.988;2023-08-31T03:07:28;11.10;;;7.80;;
55146;SDS011;41039;49.830;23.988;2023-08-31T03:09:53;9.07;;;7.17;;
55146;SDS011;41039;49.830;23.988;2023-08-31T03:12:19;9.23;;;7.87;;
55146;SDS011;41039;49.830;23.988;2023-08-31T03:14:44;8.73;;;7.65;;
55146;SDS011;41039;49.830;23.988;2023-08-31T03:17:09;10.45;;;8.15;;
55146;SDS011;41039;49.830;23.988;2023-08-31T03:19:34;7.97;;;6.65;;
55146;SDS011;41039;49.830;23.988;2023-08-31T03:22:00;9.50;;;7.43;;
55146;SDS011;41039;49.830;23.988;2023-08-31T03:24:25;10.38;;;7.78;;
55146;SDS011;41039;49.830;23.988;2023-08-31T03:26:50;10.97;;;9.00;;
55146;SDS011;41039;49.830;23.988;2023-08-31T03:29:15;11.02;;;7.60;;
55146;SDS011;41039;49.830;23.988;2023-08-31T03:31:41;10.48;;;7.78;;
55146;SDS011;41039;49.830;23.988;2023-08-31T03:34:06;10.02;;;7.35;;
55146;SDS011;41039;49.830;23.988;2023-08-31T03:36:31;11.82;;;9.05;;
55146;SDS011;41039;49.830;23.988;2023-08-31T03:38:56;10.23;;;8.10;;
55146;SDS011;41039;49.830;23.988;2023-08-31T03:41:21;10.93;;;8.40;;
55146;SDS011;41039;49.830;23.988;2023-08-31T03:43:47;11.95;;;8.60;;
55146;SDS011;41039;49.830;23.988;2023-08-31T03:46:12;13.23;;;9.57;;
55146;SDS011;41039;49.830;23.988;2023-08-31T03:48:37;11.53;;;9.20;;
55146;SDS011;41039;49.830;23.988;2023-08-31T03:51:02;12.60;;;8.93;;
55146;SDS011;41039;49.830;23.988;2023-08-31T03:53:28;13.70;;;9.60;;
55146;SDS011;41039;49.830;23.988;2023-08-31T03:55:53;15.32;;;10.90;;
55146;SDS011;41039;49.830;23.988;2023-08-31T03:58:18;14.03;;;10.93;;
55146;SDS011;41039;49.830;23.988;2023-08-31T04:00:43;15.13;;;11.18;;
55146;SDS011;41039;49.830;23.988;2023-08-31T04:03:09;14.32;;;10.57;;
55146;SDS011;41039;49.830;23.988;2023-08-31T04:05:34;16.05;;;10.85;;
55146;SDS011;41039;49.830;23.988;2023-08-31T04:08:00;15.55;;;11.02;;
55146;SDS011;41039;49.830;23.988;2023-08-31T04:10:26;15.95;;;10.68;;
55146;SDS011;41039;49.830;23.988;2023-08-31T04:12:51;16.30;;;10.70;;
55146;SDS011;41039;49.830;23.988;2023-08-31T04:15:16;17.08;;;11.70;;
55146;SDS011;41039;49.830;23.988;2023-08-31T04:17:42;15.88;;;11.00;;
55146;SDS011;41039;49.830;23.988;2023-08-31T04:20:07;17.73;;;11.40;;
55146;SDS011;41039;49.830;23.988;2023-08-31T04:22:33;18.00;;;12.40;;
55146;SDS011;41039;49.830;23.988;2023-08-31T04:24:59;20.80;;;13.38;;
55146;SDS011;41039;49.830;23.988;2023-08-31T04:27:24;15.68;;;11.65;;
55146;SDS011;41039;49.830;23.988;2023-08-31T04:29:49;15.03;;;11.30;;
55146;SDS011;41039;49.830;23.988;2023-08-31T04:32:14;17.07;;;11.93;;
55146;SDS011;41039;49.830;23.988;2023-08-31T04:34:40;16.65;;;11.90;;
55146;SDS011;41039;49.830;23.988;2023-08-31T04:37:05;17.25;;;12.00;;
55146;SDS011;41039;49.830;23.988;2023-08-31T04:39:30;16.63;;;12.18;;
55146;SDS011;41039;49.830;23.988;2023-08-31T04:41:56;17.48;;;11.45;;
55146;SDS011;41039;49.830;23.988;2023-08-31T04:44:21;17.17;;;12.17;;
55146;SDS011;41039;49.830;23.988;2023-08-31T04:46:47;17.40;;;11.68;;
55146;SDS011;41039;49.830;23.988;2023-08-31T04:49:12;15.48;;;12.02;;
55146;SDS011;41039;49.830;23.988;2023-08-31T04:51:38;14.60;;;11.63;;
55146;SDS011;41039;49.830;23.988;2023-08-31T04:54:04;16.50;;;12.80;;
55146;SDS011;41039;49.830;23.988;2023-08-31T04:56:30;18.38;;;12.13;;
55146;SDS011;41039;49.830;23.988;2023-08-31T04:58:57;15.80;;;11.02;;
55146;SDS011;41039;49.830;23.988;2023-08-31T05:01:22;14.47;;;10.73;;
55146;SDS011;41039;49.830;23.988;2023-08-31T05:03:47;16.20;;;12.60;;
55146;SDS011;41039;49.830;23.988;2023-08-31T05:06:12;15.80;;;12.10;;
55146;SDS011;41039;49.830;23.988;2023-08-31T05:08:38;14.73;;;11.10;;
55146;SDS011;41039;49.830;23.988;2023-08-31T05:11:03;13.95;;;10.73;;
55146;SDS011;41039;49.830;23.988;2023-08-31T05:13:28;16.20;;;12.25;;
55146;SDS011;41039;49.830;23.988;2023-08-31T05:15:54;16.85;;;12.23;;
55146;SDS011;41039;49.830;23.988;2023-08-31T05:18:19;15.73;;;11.60;;
55146;SDS011;41039;49.830;23.988;2023-08-31T05:20:45;14.75;;;11.52;;
55146;SDS011;41039;49.830;23.988;2023-08-31T05:23:10;15.13;;;11.15;;
55146;SDS011;41039;49.830;23.988;2023-08-31T05:25:35;13.77;;;10.70;;
55146;SDS011;41039;49.830;23.988;2023-08-31T05:28:01;14.50;;;11.73;;
55146;SDS011;41039;49.830;23.988;2023-08-31T05:30:26;17.17;;;11.80;;
55146;SDS011;41039;49.830;23.988;2023-08-31T05:32:51;14.32;;;11.02;;
55146;SDS011;41039;49.830;23.988;2023-08-31T05:35:17;15.57;;;12.33;;
55146;SDS011;41039;49.830;23.988;2023-08-31T05:37:42;14.70;;;10.98;;
55146;SDS011;41039;49.830;23.988;2023-08-31T05:40:07;16.52;;;12.10;;
55146;SDS011;41039;49.830;23.988;2023-08-31T05:42:35;15.15;;;11.60;;
55146;SDS011;41039;49.830;23.988;2023-08-31T05:45:00;16.23;;;12.45;;
55146;SDS011;41039;49.830;23.988;2023-08-31T05:47:26;14.90;;;11.93;;
55146;SDS011;41039;49.830;23.988;2023-08-31T05:49:51;13.73;;;11.43;;
55146;SDS011;41039;49.830;23.988;2023-08-31T05:52:16;13.70;;;11.17;;
55146;SDS011;41039;49.830;23.988;2023-08-31T05:54:41;14.97;;;11.07;;
55146;SDS011;41039;49.830;23.988;2023-08-31T05:57:06;17.03;;;12.07;;
55146;SDS011;41039;49.830;23.988;2023-08-31T05:59:32;15.15;;;12.38;;
55146;SDS011;41039;49.830;23.988;2023-08-31T06:01:57;14.85;;;11.65;;
55146;SDS011;41039;49.830;23.988;2023-08-31T06:04:22;15.50;;;11.50;;
55146;SDS011;41039;49.830;23.988;2023-08-31T06:06:47;14.60;;;11.10;;
55146;SDS011;41039;49.830;23.988;2023-08-31T06:09:13;15.00;;;11.43;;
55146;SDS011;41039;49.830;23.988;2023-08-31T06:11:38;14.87;;;11.60;;
55146;SDS011;41039;49.830;23.988;2023-08-31T06:14:04;16.52;;;11.50;;
55146;SDS011;41039;49.830;23.988;2023-08-31T06:16:29;16.20;;;11.73;;
55146;SDS011;41039;49.830;23.988;2023-08-31T06:18:54;12.60;;;10.75;;
55146;SDS011;41039;49.830;23.988;2023-08-31T06:21:20;16.07;;;11.50;;
55146;SDS011;41039;49.830;23.988;2023-08-31T06:23:45;15.60;;;11.43;;
55146;SDS011;41039;49.830;23.988;2023-08-31T06:26:10;12.30;;;9.07;;
55146;SDS011;41039;49.830;23.988;2023-08-31T06:28:36;13.95;;;10.75;;
55146;SDS011;41039;49.830;23.988;2023-08-31T06:31:01;11.35;;;8.48;;
55146;SDS011;41039;49.830;23.988;2023-08-31T06:33:26;11.20;;;8.05;;
55146;SDS011;41039;49.830;23.988;2023-08-31T06:35:51;11.73;;;9.37;;
55146;SDS011;41039;49.830;23.988;2023-08-31T06:38:20;10.77;;;9.17;;
55146;SDS011;41039;49.830;23.988;2023-08-31T06:40:46;11.98;;;8.45;;
55146;SDS011;41039;49.830;23.988;2023-08-31T06:43:11;10.68;;;7.45;;
55146;SDS011;41039;49.830;23.988;2023-08-31T06:45:37;10.43;;;7.10;;
55146;SDS011;41039;49.830;23.988;2023-08-31T06:48:02;12.00;;;8.77;;
55146;SDS011;41039;49.830;23.988;2023-08-31T06:50:28;11.63;;;8.38;;
55146;SDS011;41039;49.830;23.988;2023-08-31T06:52:53;12.27;;;9.15;;
55146;SDS011;41039;49.830;23.988;2023-08-31T06:55:18;10.60;;;8.23;;
55146;SDS011;41039;49.830;23.988;2023-08-31T06:57:46;11.63;;;7.43;;
55146;SDS011;41039;49.830;23.988;2023-08-31T07:00:11;8.57;;;6.90;;
55146;SDS011;41039;49.830;23.988;2023-08-31T07:02:39;7.75;;;6.43;;
55146;SDS011;41039;49.830;23.988;2023-08-31T07:05:04;9.18;;;6.40;;
55146;SDS011;41039;49.830;23.988;2023-08-31T07:07:30;7.15;;;5.63;;
55146;SDS011;41039;49.830;23.988;2023-08-31T07:09:55;7.22;;;5.50;;
55146;SDS011;41039;49.830;23.988;2023-08-31T07:12:21;7.15;;;5.07;;
55146;SDS011;41039;49.830;23.988;2023-08-31T07:14:46;5.43;;;3.83;;
55146;SDS011;41039;49.830;23.988;2023-08-31T07:17:11;5.20;;;4.53;;
55146;SDS011;41039;49.830;23.988;2023-08-31T07:19:36;5.53;;;4.23;;
55146;SDS011;41039;49.830;23.988;2023-08-31T07:22:02;5.28;;;3.58;;
55146;SDS011;41039;49.830;23.988;2023-08-31T07:24:29;7.35;;;4.20;;
55146;SDS011;41039;49.830;23.988;2023-08-31T07:26:55;5.82;;;3.28;;
55146;SDS011;41039;49.830;23.988;2023-08-31T07:29:20;6.32;;;3.35;;
55146;SDS011;41039;49.830;23.988;2023-08-31T07:31:46;5.03;;;2.90;;
55146;SDS011;41039;49.830;23.988;2023-08-31T07:34:11;4.65;;;3.22;;
55146;SDS011;41039;49.830;23.988;2023-08-31T07:36:36;6.07;;;3.40;;
55146;SDS011;41039;49.830;23.988;2023-08-31T07:39:01;7.37;;;3.60;;
55146;SDS011;41039;49.830;23.988;2023-08-31T07:41:28;4.35;;;3.22;;
55146;SDS011;41039;49.830;23.988;2023-08-31T07:43:53;4.38;;;3.30;;
55146;SDS011;41039;49.830;23.988;2023-08-31T07:46:19;6.10;;;4.57;;
55146;SDS011;41039;49.830;23.988;2023-08-31T07:48:44;6.25;;;2.83;;
55146;SDS011;41039;49.830;23.988;2023-08-31T07:51:09;3.33;;;2.30;;
55146;SDS011;41039;49.830;23.988;2023-08-31T07:53:35;3.05;;;2.33;;
55146;SDS011;41039;49.830;23.988;2023-08-31T07:56:00;5.00;;;2.63;;
55146;SDS011;41039;49.830;23.988;2023-08-31T07:58:25;7.22;;;5.13;;
55146;SDS011;41039;49.830;23.988;2023-08-31T08:00:54;5.63;;;2.70;;
55146;SDS011;41039;49.830;23.988;2023-08-31T08:03:19;4.35;;;3.38;;
55146;SDS011;41039;49.830;23.988;2023-08-31T08:05:45;2.85;;;2.00;;
55146;SDS011;41039;49.830;23.988;2023-08-31T08:08:10;5.73;;;3.57;;
55146;SDS011;41039;49.830;23.988;2023-08-31T08:10:35;5.28;;;2.60;;
55146;SDS011;41039;49.830;23.988;2023-08-31T08:13:01;2.80;;;2.00;;
55146;SDS011;41039;49.830;23.988;2023-08-31T08:15:26;4.93;;;2.25;;
55146;SDS011;41039;49.830;23.988;2023-08-31T08:17:51;3.60;;;1.90;;
55146;SDS011;41039;49.830;23.988;2023-08-31T08:20:18;4.78;;;2.83;;
55146;SDS011;41039;49.830;23.988;2023-08-31T08:22:44;3.92;;;2.75;;
55146;SDS011;41039;49.830;23.988;2023-08-31T08:25:09;4.72;;;2.50;;
55146;SDS011;41039;49.830;23.988;2023-08-31T08:27:35;5.43;;;3.25;;
55146;SDS011;41039;49.830;23.988;2023-08-31T08:30:01;4.72;;;2.60;;
55146;SDS011;41039;49.830;23.988;2023-08-31T08:32:27;5.40;;;2.75;;
55146;SDS011;41039;49.830;23.988;2023-08-31T08:34:52;4.18;;;2.70;;
55146;SDS011;41039;49.830;23.988;2023-08-31T08:37:19;3.17;;;2.40;;
55146;SDS011;41039;49.830;23.988;2023-08-31T08:39:47;3.45;;;2.50;;
55146;SDS011;41039;49.830;23.988;2023-08-31T08:42:12;5.65;;;2.33;;
55146;SDS011;41039;49.830;23.988;2023-08-31T08:44:38;4.07;;;2.25;;
55146;SDS011;41039;49.830;23.988;2023-08-31T08:47:04;4.43;;;2.33;;
55146;SDS011;41039;49.830;23.988;2023-08-31T08:49:32;3.42;;;2.70;;
55146;SDS011;41039;49.830;23.988;2023-08-31T08:51:58;3.95;;;2.47;;
55146;SDS011;41039;49.830;23.988;2023-08-31T08:54:24;6.82;;;2.92;;
55146;SDS011;41039;49.830;23.988;2023-08-31T08:56:49;4.28;;;2.78;;
55146;SDS011;41039;49.830;23.988;2023-08-31T08:59:15;4.63;;;2.83;;
55146;SDS011;41039;49.830;23.988;2023-08-31T09:01:40;3.63;;;2.40;;
55146;SDS011;41039;49.830;23.988;2023-08-31T09:04:05;6.13;;;2.55;;
55146;SDS011;41039;49.830;23.988;2023-08-31T09:06:31;3.10;;;2.05;;
55146;SDS011;41039;49.830;23.988;2023-08-31T09:08:56;5.95;;;2.30;;
55146;SDS011;41039;49.830;23.988;2023-08-31T09:11:22;2.78;;;2.00;;
55146;SDS011;41039;49.830;23.988;2023-08-31T09:13:48;3.40;;;2.38;;
55146;SDS011;41039;49.830;23.988;2023-08-31T09:16:23;3.50;;;2.38;;
55146;SDS011;41039;49.830;23.988;2023-08-31T09:18:48;5.05;;;2.60;;
55146;SDS011;41039;49.830;23.988;2023-08-31T09:21:13;4.40;;;2.60;;
55146;SDS011;41039;49.830;23.988;2023-08-31T09:23:39;3.77;;;2.53;;
55146;SDS011;41039;49.830;23.988;2023-08-31T09:26:04;5.33;;;3.30;;
55146;SDS011;41039;49.830;23.988;2023-08-31T09:28:29;3.83;;;2.80;;
55146;SDS011;41039;49.830;23.988;2023-08-31T09:31:04;4.38;;;2.65;;
55146;SDS011;41039;49.830;23.988;2023-08-31T09:33:29;5.90;;;3.10;;
55146;SDS011;41039;49.830;23.988;2023-08-31T09:35:59;4.88;;;2.42;;
55146;SDS011;41039;49.830;23.988;2023-08-31T09:38:29;4.18;;;2.35;;
55146;SDS011;41039;49.830;23.988;2023-08-31T09:41:04;3.50;;;2.22;;
55146;SDS011;41039;49.830;23.988;2023-08-31T09:43:29;3.92;;;2.40;;
55146;SDS011;41039;49.830;23.988;2023-08-31T09:45:55;6.63;;;2.67;;
55146;SDS011;41039;49.830;23.988;2023-08-31T09:48:20;4.65;;;2.60;;
55146;SDS011;41039;49.830;23.988;2023-08-31T09:50:47;4.60;;;2.60;;
55146;SDS011;41039;49.830;23.988;2023-08-31T09:53:14;5.07;;;2.45;;
55146;SDS011;41039;49.830;23.988;2023-08-31T09:55:40;5.57;;;2.78;;
55146;SDS011;41039;49.830;23.988;2023-08-31T09:58:06;6.00;;;2.67;;
55146;SDS011;41039;49.830;23.988;2023-08-31T10:00:31;4.47;;;2.50;;
55146;SDS011;41039;49.830;23.988;2023-08-31T10:03:01;3.70;;;2.25;;
55146;SDS011;41039;49.830;23.988;2023-08-31T10:05:27;4.95;;;2.53;;
55146;SDS011;41039;49.830;23.988;2023-08-31T10:07:52;4.47;;;2.33;;
55146;SDS011;41039;49.830;23.988;2023-08-31T10:10:18;5.43;;;2.33;;
55146;SDS011;41039;49.830;23.988;2023-08-31T10:12:45;3.08;;;2.28;;
55146;SDS011;41039;49.830;23.988;2023-08-31T10:15:12;5.45;;;2.70;;
55146;SDS011;41039;49.830;23.988;2023-08-31T10:17:39;5.75;;;2.55;;
55146;SDS011;41039;49.830;23.988;2023-08-31T10:20:05;4.30;;;2.45;;
55146;SDS011;41039;49.830;23.988;2023-08-31T10:22:31;3.40;;;2.17;;
55146;SDS011;41039;49.830;23.988;2023-08-31T10:27:21;2.70;;;1.90;;
55146;SDS011;41039;49.830;23.988;2023-08-31T10:29:46;4.37;;;1.80;;
55146;SDS011;41039;49.830;23.988;2023-08-31T10:32:16;6.30;;;2.70;;
55146;SDS011;41039;49.830;23.988;2023-08-31T10:34:42;5.82;;;2.30;;
55146;SDS011;41039;49.830;23.988;2023-08-31T10:37:21;5.78;;;2.10;;
55146;SDS011;41039;49.830;23.988;2023-08-31T10:39:47;4.15;;;3.03;;
55146;SDS011;41039;49.830;23.988;2023-08-31T10:42:12;3.67;;;2.40;;
55146;SDS011;41039;49.830;23.988;2023-08-31T10:44:37;3.70;;;2.20;;
55146;SDS011;41039;49.830;23.988;2023-08-31T10:47:07;3.53;;;2.17;;
55146;SDS011;41039;49.830;23.988;2023-08-31T10:49:32;3.03;;;1.70;;
55146;SDS011;41039;49.830;23.988;2023-08-31T10:52:14;4.57;;;1.63;;
55146;SDS011;41039;49.830;23.988;2023-08-31T10:54:39;6.47;;;2.22;;
55146;SDS011;41039;49.830;23.988;2023-08-31T10:57:05;2.20;;;1.60;;
55146;SDS011;41039;49.830;23.988;2023-08-31T10:59:52;2.80;;;1.80;;
55146;SDS011;41039;49.830;23.988;2023-08-31T11:07:29;3.20;;;2.00;;
55146;SDS011;41039;49.830;23.988;2023-08-31T11:10:13;3.80;;;1.80;;
55146;SDS011;41039;49.830;23.988;2023-08-31T11:12:40;2.53;;;1.38;;
55146;SDS011;41039;49.830;23.988;2023-08-31T11:15:05;5.35;;;2.20;;
55146;SDS011;41039;49.830;23.988;2023-08-31T11:17:31;2.20;;;1.40;;
55146;SDS011;41039;49.830;23.988;2023-08-31T11:19:59;3.22;;;1.70;;
55146;SDS011;41039;49.830;23.988;2023-08-31T11:22:25;4.97;;;1.67;;
55146;SDS011;41039;49.830;23.988;2023-08-31T11:24:50;2.55;;;1.23;;
55146;SDS011;41039;49.830;23.988;2023-08-31T11:27:18;3.55;;;1.75;;
55146;SDS011;41039;49.830;23.988;2023-08-31T11:29:44;2.10;;;1.40;;
55146;SDS011;41039;49.830;23.988;2023-08-31T11:32:09;2.92;;;1.83;;
55146;SDS011;41039;49.830;23.988;2023-08-31T11:34:34;2.85;;;1.92;;
55146;SDS011;41039;49.830;23.988;2023-08-31T11:37:01;3.05;;;1.60;;
55146;SDS011;41039;49.830;23.988;2023-08-31T11:39:27;3.65;;;1.95;;
55146;SDS011;41039;49.830;23.988;2023-08-31T11:41:53;4.97;;;2.55;;
55146;SDS011;41039;49.830;23.988;2023-08-31T11:44:18;4.97;;;2.20;;
55146;SDS011;41039;49.830;23.988;2023-08-31T11:46:45;5.32;;;3.40;;
55146;SDS011;41039;49.830;23.988;2023-08-31T11:49:11;6.57;;;2.53;;
55146;SDS011;41039;49.830;23.988;2023-08-31T11:51:36;3.75;;;2.00;;
55146;SDS011;41039;49.830;23.988;2023-08-31T11:54:03;3.30;;;1.83;;
55146;SDS011;41039;49.830;23.988;2023-08-31T11:59:23;4.20;;;2.00;;
55146;SDS011;41039;49.830;23.988;2023-08-31T12:01:49;5.67;;;2.47;;
55146;SDS011;41039;49.830;23.988;2023-08-31T12:04:21;6.47;;;2.45;;
55146;SDS011;41039;49.830;23.988;2023-08-31T12:06:49;5.10;;;2.83;;
55146;SDS011;41039;49.830;23.988;2023-08-31T12:09:15;3.45;;;2.17;;
55146;SDS011;41039;49.830;23.988;2023-08-31T12:11:40;3.00;;;2.15;;
55146;SDS011;41039;49.830;23.988;2023-08-31T12:14:18;2.63;;;1.83;;
55146;SDS011;41039;49.830;23.988;2023-08-31T12:16:43;4.47;;;2.05;;
55146;SDS011;41039;49.830;23.988;2023-08-31T12:19:09;2.80;;;1.58;;
55146;SDS011;41039;49.830;23.988;2023-08-31T12:21:35;3.95;;;1.80;;
55146;SDS011;41039;49.830;23.988;2023-08-31T12:24:00;1.98;;;1.40;;
55146;SDS011;41039;49.830;23.988;2023-08-31T12:26:26;2.35;;;1.50;;
55146;SDS011;41039;49.830;23.988;2023-08-31T12:28:51;2.25;;;1.60;;
55146;SDS011;41039;49.830;23.988;2023-08-31T12:31:16;3.03;;;2.00;;
55146;SDS011;41039;49.830;23.988;2023-08-31T12:33:41;2.23;;;1.50;;
55146;SDS011;41039;49.830;23.988;2023-08-31T12:36:07;3.87;;;1.53;;
55146;SDS011;41039;49.830;23.988;2023-08-31T12:38:32;5.72;;;2.15;;
55146;SDS011;41039;49.830;23.988;2023-08-31T12:40:58;3.10;;;2.30;;
55146;SDS011;41039;49.830;23.988;2023-08-31T12:43:23;2.47;;;1.80;;
55146;SDS011;41039;49.830;23.988;2023-08-31T12:45:48;5.83;;;3.20;;
55146;SDS011;41039;49.830;23.988;2023-08-31T12:48:14;5.00;;;2.23;;
55146;SDS011;41039;49.830;23.988;2023-08-31T12:50:39;3.47;;;1.50;;
55146;SDS011;41039;49.830;23.988;2023-08-31T12:53:04;5.23;;;1.60;;
55146;SDS011;41039;49.830;23.988;2023-08-31T12:55:29;5.43;;;3.13;;
55146;SDS011;41039;49.830;23.988;2023-08-31T12:57:55;5.38;;;2.85;;
55146;SDS011;41039;49.830;23.988;2023-08-31T13:00:20;3.37;;;2.13;;
55146;SDS011;41039;49.830;23.988;2023-08-31T13:02:46;4.65;;;2.78;;
55146;SDS011;41039;49.830;23.988;2023-08-31T13:05:11;5.32;;;2.17;;
55146;SDS011;41039;49.830;23.988;2023-08-31T13:07:37;4.47;;;2.60;;
55146;SDS011;41039;49.830;23.988;2023-08-31T13:10:03;5.32;;;2.28;;
55146;SDS011;41039;49.830;23.988;2023-08-31T13:12:29;4.55;;;2.08;;
55146;SDS011;41039;49.830;23.988;2023-08-31T13:14:55;5.30;;;2.55;;
55146;SDS011;41039;49.830;23.988;2023-08-31T13:17:20;4.13;;;2.05;;
55146;SDS011;41039;49.830;23.988;2023-08-31T13:19:45;5.13;;;2.13;;
55146;SDS011;41039;49.830;23.988;2023-08-31T13:22:10;3.77;;;2.57;;
55146;SDS011;41039;49.830;23.988;2023-08-31T13:24:40;5.60;;;2.03;;
55146;SDS011;41039;49.830;23.988;2023-08-31T13:27:05;8.88;;;2.67;;
55146;SDS011;41039;49.830;23.988;2023-08-31T13:29:30;5.22;;;2.60;;
55146;SDS011;41039;49.830;23.988;2023-08-31T13:31:57;3.38;;;2.33;;
55146;SDS011;41039;49.830;23.988;2023-08-31T13:34:22;4.38;;;2.15;;
55146;SDS011;41039;49.830;23.988;2023-08-31T13:36:47;3.63;;;1.97;;
55146;SDS011;41039;49.830;23.988;2023-08-31T13:39:12;4.78;;;2.25;;
55146;SDS011;41039;49.830;23.988;2023-08-31T13:41:38;3.27;;;2.40;;
55146;SDS011;41039;49.830;23.988;2023-08-31T13:44:03;5.20;;;2.58;;
55146;SDS011;41039;49.830;23.988;2023-08-31T13:46:28;3.00;;;2.03;;
55146;SDS011;41039;49.830;23.988;2023-08-31T13:48:54;5.40;;;2.40;;
55146;SDS011;41039;49.830;23.988;2023-08-31T13:51:19;4.25;;;2.58;;
55146;SDS011;41039;49.830;23.988;2023-08-31T13:53:45;2.88;;;2.17;;
55146;SDS011;41039;49.830;23.988;2023-08-31T13:56:10;5.63;;;2.38;;
55146;SDS011;41039;49.830;23.988;2023-08-31T13:58:35;4.80;;;2.30;;
55146;SDS011;41039;49.830;23.988;2023-08-31T14:01:01;4.83;;;1.87;;
55146;SDS011;41039;49.830;23.988;2023-08-31T14:03:28;3.88;;;2.35;;
55146;SDS011;41039;49.830;23.988;2023-08-31T14:05:53;4.30;;;2.40;;
55146;SDS011;41039;49.830;23.988;2023-08-31T14:08:18;7.47;;;2.80;;
55146;SDS011;41039;49.830;23.988;2023-08-31T14:10:44;3.55;;;2.75;;
55146;SDS011;41039;49.830;23.988;2023-08-31T14:13:09;5.22;;;2.78;;
55146;SDS011;41039;49.830;23.988;2023-08-31T14:15:34;4.80;;;2.30;;
55146;SDS011;41039;49.830;23.988;2023-08-31T14:18:00;4.13;;;2.45;;
55146;SDS011;41039;49.830;23.988;2023-08-31T14:20:25;3.50;;;2.27;;
55146;SDS011;41039;49.830;23.988;2023-08-31T14:22:50;4.55;;;2.33;;
55146;SDS011;41039;49.830;23.988;2023-08-31T14:25:15;3.93;;;2.30;;
55146;SDS011;41039;49.830;23.988;2023-08-31T14:27:41;3.35;;;2.10;;
55146;SDS011;41039;49.830;23.988;2023-08-31T14:30:06;6.15;;;2.08;;
55146;SDS011;41039;49.830;23.988;2023-08-31T14:32:32;4.45;;;2.35;;
55146;SDS011;41039;49.830;23.988;2023-08-31T14:34:57;3.47;;;2.47;;
55146;SDS011;41039;49.830;23.988;2023-08-31T14:37:22;5.00;;;2.10;;
55146;SDS011;41039;49.830;23.988;2023-08-31T14:39:47;2.97;;;2.33;;